National Weather Service Raw Text Product

Displaying AFOS PIL: TAFOTM Received: 2018-01-03 15:30 UTC


113 
FTUS43 KDMX 031530 AAA
TAFOTM
TAF AMD
KOTM 031530Z 0316/0412 32015G24KT P6SM SKC
     FM040000 31010KT P6SM FEW250
     FM040800 32006KT P6SM FEW250=